createdAt,value
2023-01-11T00:01:07.488Z,80.03
2023-01-11T00:03:34.328Z,79.66
2023-01-11T00:06:01.158Z,80.51
2023-01-11T00:08:28.550Z,79.98
2023-01-11T00:10:55.462Z,79.68
2023-01-11T00:13:22.040Z,79.51
2023-01-11T00:15:48.618Z,79.68
2023-01-11T00:18:15.258Z,80.09
2023-01-11T00:20:42.229Z,79.63
2023-01-11T00:23:09.230Z,79.16
2023-01-11T00:25:36.303Z,80.12
2023-01-11T00:28:03.273Z,79.44
2023-01-11T00:30:29.816Z,80.27
2023-01-11T00:33:00.606Z,80.56
2023-01-11T00:35:29.950Z,80.09
2023-01-11T00:37:56.583Z,80.33
2023-01-11T00:40:24.251Z,80.21
2023-01-11T00:43:09.452Z,80.36
2023-01-11T00:46:08.510Z,79.92
2023-01-11T00:48:35.106Z,79.26
2023-01-11T00:51:01.688Z,79.78
2023-01-11T00:53:28.213Z,80.22
2023-01-11T00:55:54.707Z,79.71
2023-01-11T00:58:21.221Z,79.86
2023-01-11T01:00:47.765Z,79.53
2023-01-11T01:03:14.311Z,80.28
2023-01-11T01:05:40.903Z,79.79
2023-01-11T01:08:07.487Z,80.68
2023-01-11T01:10:34.261Z,80.12
2023-01-11T01:13:19.276Z,80.13
2023-01-11T01:15:45.864Z,80.62
2023-01-11T01:18:12.531Z,80.27
2023-01-11T01:20:39.167Z,79.52
2023-01-11T01:23:05.744Z,79.83
2023-01-11T01:25:32.269Z,79.56
2023-01-11T01:27:58.838Z,79.71
2023-01-11T01:30:25.353Z,79.52
2023-01-11T01:32:51.904Z,79.74
2023-01-11T01:35:18.469Z,79.93
2023-01-11T01:37:45.060Z,79.86
2023-01-11T01:40:12.231Z,80.24
2023-01-11T01:42:38.784Z,79.75
2023-01-11T01:45:18.542Z,80.95
2023-01-11T01:47:53.650Z,80.26
2023-01-11T01:50:32.122Z,80.55
2023-01-11T01:53:09.859Z,80.02
2023-01-11T01:55:41.168Z,80.68
2023-01-11T01:58:12.900Z,80.95
2023-01-11T02:00:42.528Z,80.41
2023-01-11T02:03:12.230Z,80.54
2023-01-11T02:05:38.750Z,81.08
2023-01-11T02:08:11.589Z,80.29
2023-01-11T02:10:38.279Z,80.19
2023-01-11T02:13:08.930Z,80.48
2023-01-11T02:15:36.881Z,80.04
2023-01-11T02:18:03.813Z,79.60
2023-01-11T02:20:45.527Z,79.35
2023-01-11T02:23:17.872Z,79.37
2023-01-11T02:25:53.547Z,79.62
2023-01-11T02:28:54.026Z,79.60
2023-01-11T02:32:00.371Z,78.38
2023-01-11T02:34:30.608Z,78.62
2023-01-11T02:37:00.060Z,79.08
2023-01-11T02:39:43.694Z,79.41
2023-01-11T02:42:47.832Z,78.58
2023-01-11T02:45:24.769Z,78.98
2023-01-11T02:48:12.259Z,79.00
2023-01-11T02:50:48.988Z,78.23
2023-01-11T02:53:50.177Z,78.12
2023-01-11T02:56:30.832Z,77.73
2023-01-11T02:58:58.564Z,78.06
2023-01-11T03:01:25.672Z,78.00
2023-01-11T03:03:53.619Z,78.14
2023-01-11T03:06:34.928Z,77.98
2023-01-11T03:09:18.154Z,78.29
2023-01-11T03:12:20.459Z,77.13
2023-01-11T03:15:27.443Z,76.91
2023-01-11T03:18:02.894Z,76.70
2023-01-11T03:20:40.935Z,76.84
2023-01-11T03:23:17.630Z,76.75
2023-01-11T03:26:16.322Z,76.51
2023-01-11T03:28:48.577Z,76.12
2023-01-11T03:31:26.522Z,76.60
2023-01-11T03:34:08.899Z,76.92
2023-01-11T03:37:07.372Z,77.03
2023-01-11T03:39:44.918Z,76.82
2023-01-11T03:42:15.688Z,77.65
2023-01-11T03:44:50.414Z,76.92
2023-01-11T03:47:20.565Z,76.81
2023-01-11T03:49:53.324Z,76.69
2023-01-11T03:52:25.735Z,77.03
2023-01-11T03:54:55.545Z,76.39
2023-01-11T03:57:33.596Z,77.05
2023-01-11T04:00:00.766Z,77.46
2023-01-11T04:02:34.001Z,77.10
2023-01-11T04:05:00.759Z,77.63
2023-01-11T04:07:27.307Z,76.30
2023-01-11T04:09:53.877Z,76.72
2023-01-11T04:12:20.406Z,76.15
2023-01-11T04:14:46.898Z,76.45
2023-01-11T04:17:13.414Z,76.08
2023-01-11T04:19:39.922Z,76.06
2023-01-11T04:22:06.437Z,75.51
2023-01-11T04:24:33.042Z,75.83
2023-01-11T04:26:59.597Z,75.07
2023-01-11T04:29:26.154Z,75.64
2023-01-11T04:31:52.806Z,75.67
2023-01-11T04:34:19.427Z,75.76
2023-01-11T04:36:45.943Z,75.24
2023-01-11T04:39:12.529Z,75.47
2023-01-11T04:41:57.906Z,75.63
2023-01-11T04:44:24.710Z,74.62
2023-01-11T04:46:51.248Z,75.16
2023-01-11T04:49:17.845Z,74.50
2023-01-11T04:51:44.420Z,74.44
2023-01-11T04:54:11.185Z,73.77
2023-01-11T04:56:37.738Z,74.28
2023-01-11T04:59:04.291Z,73.92
2023-01-11T05:01:31.067Z,73.78
2023-01-11T05:03:57.653Z,74.80
2023-01-11T05:06:24.338Z,73.80
2023-01-11T05:08:50.938Z,73.48
2023-01-11T05:11:18.019Z,73.60
2023-01-11T05:13:45.197Z,73.77
2023-01-11T05:16:13.508Z,73.52
2023-01-11T05:18:45.436Z,73.36
2023-01-11T05:21:14.527Z,73.74
2023-01-11T05:23:41.945Z,73.85
2023-01-11T05:26:11.158Z,73.86
2023-01-11T05:28:37.837Z,74.72
2023-01-11T05:31:04.729Z,73.89
2023-01-11T05:33:31.678Z,74.23
2023-01-11T05:36:00.202Z,73.97
2023-01-11T05:38:27.106Z,73.68
2023-01-11T05:40:58.558Z,73.65
2023-01-11T05:43:26.545Z,73.53
2023-01-11T05:45:53.671Z,74.62
2023-01-11T05:48:20.852Z,74.92
2023-01-11T05:50:55.427Z,74.07
2023-01-11T05:53:24.043Z,74.40
2023-01-11T05:55:58.647Z,74.34
2023-01-11T05:58:26.852Z,74.81
2023-01-11T06:00:56.011Z,74.42
2023-01-11T06:03:24.285Z,74.50
2023-01-11T06:05:51.599Z,74.77
2023-01-11T06:08:18.392Z,74.95
2023-01-11T06:10:51.798Z,74.64
2023-01-11T06:13:27.079Z,74.50
2023-01-11T06:15:54.125Z,74.51
2023-01-11T06:18:21.332Z,74.22
2023-01-11T06:20:51.879Z,74.34
2023-01-11T06:23:18.713Z,74.27
2023-01-11T06:25:45.870Z,73.94
2023-01-11T06:28:12.937Z,74.34
2023-01-11T06:30:40.249Z,73.72
2023-01-11T06:33:07.466Z,74.02
2023-01-11T06:35:38.659Z,74.54
2023-01-11T06:38:06.471Z,74.37
2023-01-11T06:40:33.491Z,73.09
2023-01-11T06:43:00.065Z,73.58
2023-01-11T06:45:26.725Z,74.42
2023-01-11T06:47:53.290Z,74.00
2023-01-11T06:50:19.895Z,73.23
2023-01-11T06:52:59.786Z,73.85
2023-01-11T06:55:28.350Z,73.40
2023-01-11T06:57:54.928Z,73.63
2023-01-11T07:00:22.226Z,73.92
2023-01-11T07:02:49.486Z,73.16
2023-01-11T07:05:19.034Z,73.47
2023-01-11T07:07:46.028Z,73.25
2023-01-11T07:10:16.793Z,73.22
2023-01-11T07:12:43.363Z,73.04
2023-01-11T07:15:10.956Z,72.67
2023-01-11T07:17:38.230Z,73.10
2023-01-11T07:20:06.526Z,73.57
2023-01-11T07:22:36.775Z,73.22
2023-01-11T07:25:05.324Z,73.75
2023-01-11T07:27:32.377Z,73.75
2023-01-11T07:30:01.928Z,73.79
2023-01-11T07:32:29.144Z,73.48
2023-01-11T07:34:56.219Z,72.77
2023-01-11T07:37:29.479Z,72.68
2023-01-11T07:39:56.359Z,73.98
2023-01-11T07:42:41.492Z,73.40
2023-01-11T07:45:08.594Z,74.05
2023-01-11T07:47:35.136Z,74.56
2023-01-11T07:50:01.814Z,73.99
2023-01-11T07:52:28.428Z,73.29
2023-01-11T07:54:55.119Z,73.89
2023-01-11T07:57:21.668Z,74.29
2023-01-11T07:59:48.151Z,72.95
2023-01-11T08:02:14.791Z,73.34
2023-01-11T08:04:41.350Z,72.84
2023-01-11T08:07:07.896Z,72.71
2023-01-11T08:09:34.466Z,72.09
2023-01-11T08:12:19.344Z,71.82
2023-01-11T08:14:45.903Z,72.92
2023-01-11T08:17:15.481Z,72.58
2023-01-11T08:19:42.211Z,72.65
2023-01-11T08:22:09.805Z,72.46
2023-01-11T08:24:36.571Z,72.76
2023-01-11T08:27:03.977Z,72.74
2023-01-11T08:29:31.016Z,72.55
2023-01-11T08:31:59.334Z,72.18
2023-01-11T08:34:27.602Z,71.08
2023-01-11T08:36:56.667Z,70.68
2023-01-11T08:39:24.401Z,71.67
2023-01-11T08:41:50.947Z,71.27
2023-01-11T08:44:29.149Z,71.75
2023-01-11T08:46:59.565Z,71.90
2023-01-11T08:49:26.163Z,71.74
2023-01-11T08:51:52.731Z,72.10
2023-01-11T08:54:19.275Z,71.57
2023-01-11T08:56:45.763Z,71.87
2023-01-11T08:59:12.554Z,70.89
2023-01-11T09:01:39.344Z,71.06
2023-01-11T09:04:19.100Z,71.39
2023-01-11T09:06:49.862Z,70.58
2023-01-11T09:09:26.611Z,71.19
2023-01-11T09:12:00.806Z,70.60
2023-01-11T09:14:28.755Z,70.66
2023-01-11T09:16:56.317Z,70.96
2023-01-11T09:19:23.264Z,71.13
2023-01-11T09:21:51.149Z,71.12
2023-01-11T09:24:17.770Z,70.38
2023-01-11T09:26:44.339Z,69.99
2023-01-11T09:29:11.714Z,70.00
2023-01-11T09:31:38.439Z,69.72
2023-01-11T09:34:06.945Z,70.70
2023-01-11T09:36:36.095Z,70.61
2023-01-11T09:39:07.498Z,70.13
2023-01-11T09:42:02.036Z,69.45
2023-01-11T09:44:30.106Z,69.38
2023-01-11T09:47:17.227Z,70.63
2023-01-11T09:49:51.998Z,70.35
2023-01-11T09:52:29.002Z,70.43
2023-01-11T09:54:59.096Z,70.94
2023-01-11T09:57:50.318Z,70.57
2023-01-11T10:00:33.439Z,70.26
2023-01-11T10:03:46.250Z,70.60
2023-01-11T10:06:23.011Z,69.78
2023-01-11T10:18:37.590Z,71.30
2023-01-11T10:18:40.396Z,70.52
2023-01-11T10:21:06.753Z,71.30
2023-01-11T10:24:01.219Z,70.22
2023-01-11T10:26:37.119Z,70.25
2023-01-11T10:29:16.438Z,70.39
2023-01-11T10:32:13.728Z,69.07
2023-01-11T10:35:13.672Z,69.02
2023-01-11T10:37:50.455Z,68.90
2023-01-11T10:40:35.039Z,68.81
2023-01-11T10:43:21.797Z,68.87
2023-01-11T10:45:52.102Z,69.03
2023-01-11T10:48:32.806Z,68.90
2023-01-11T10:51:16.067Z,68.24
2023-01-11T10:57:04.680Z,67.67
2023-01-11T10:59:43.967Z,67.19
2023-01-11T11:02:16.555Z,66.56
2023-01-11T11:04:52.043Z,67.79
2023-01-11T11:07:45.806Z,68.16
2023-01-11T11:10:24.449Z,66.83
2023-01-11T11:12:56.408Z,68.55
2023-01-11T11:15:38.568Z,67.52
2023-01-11T11:18:05.408Z,67.54
2023-01-11T11:20:34.109Z,66.70
2023-01-11T11:23:01.683Z,67.18
2023-01-11T11:25:35.510Z,67.30
2023-01-11T11:28:26.308Z,68.42
2023-01-11T11:30:55.674Z,67.47
2023-01-11T11:33:29.539Z,67.19
2023-01-11T11:36:09.666Z,67.48
2023-01-11T11:38:39.621Z,67.52
2023-01-11T11:41:17.004Z,68.10
2023-01-11T11:43:46.486Z,67.86
2023-01-11T11:46:19.571Z,67.54
2023-01-11T11:49:11.172Z,67.93
2023-01-11T11:51:39.158Z,68.61
2023-01-11T11:54:05.927Z,68.04
2023-01-11T11:56:41.729Z,67.78
2023-01-11T11:59:12.299Z,68.59
2023-01-11T12:01:46.890Z,68.92
2023-01-11T12:04:20.365Z,69.12
2023-01-11T12:06:53.854Z,67.75
2023-01-11T12:09:28.486Z,68.00
2023-01-11T12:11:55.390Z,68.59
2023-01-11T12:17:22.026Z,68.11
2023-01-11T12:19:48.622Z,68.08
2023-01-11T12:22:23.767Z,67.46
2023-01-11T12:25:14.651Z,66.71
2023-01-11T12:28:15.767Z,67.31
2023-01-11T12:31:12.487Z,67.85
2023-01-11T12:34:14.829Z,68.63
2023-01-11T12:36:58.789Z,68.30
2023-01-11T12:39:38.654Z,66.79
2023-01-11T12:42:33.501Z,68.57
2023-01-11T12:45:16.083Z,67.04
2023-01-11T12:48:12.903Z,68.27
2023-01-11T12:50:54.928Z,69.50
2023-01-11T12:53:40.279Z,70.01
2023-01-11T12:56:31.485Z,70.13
2023-01-11T12:59:18.211Z,70.13
2023-01-11T13:02:15.997Z,69.54
2023-01-11T13:04:51.173Z,69.89
2023-01-11T13:07:39.131Z,70.72
2023-01-11T13:10:05.597Z,69.76
2023-01-11T13:12:42.368Z,70.96
2023-01-11T13:15:34.586Z,68.97
2023-01-11T13:18:19.976Z,69.33
2023-01-11T13:21:02.126Z,70.47
2023-01-11T13:23:44.271Z,70.92
2023-01-11T13:26:28.822Z,71.84
2023-01-11T13:29:06.729Z,71.26
2023-01-11T13:31:35.757Z,72.77
2023-01-11T13:34:12.595Z,73.05
2023-01-11T13:36:45.513Z,72.64
2023-01-11T13:39:21.913Z,73.26
2023-01-11T13:41:51.949Z,72.34
2023-01-11T13:44:24.611Z,72.98
2023-01-11T13:47:13.456Z,73.08
2023-01-11T13:49:58.081Z,73.90
2023-01-11T13:53:09.788Z,74.10
2023-01-11T13:55:57.443Z,74.14
2023-01-11T13:58:30.368Z,74.69
2023-01-11T14:01:19.954Z,75.25
2023-01-11T14:03:59.652Z,75.78
2023-01-11T14:06:45.130Z,74.78
2023-01-11T14:09:51.587Z,76.11
2023-01-11T14:12:20.761Z,76.05
2023-01-11T14:14:59.397Z,75.87
2023-01-11T14:17:53.230Z,75.75
2023-01-11T14:20:38.367Z,75.64
2023-01-11T14:23:13.337Z,77.23
2023-01-11T14:26:17.505Z,77.12
2023-01-11T14:29:15.742Z,76.25
2023-01-11T14:31:57.443Z,77.62
2023-01-11T14:34:36.299Z,76.89
2023-01-11T14:37:14.971Z,77.25
2023-01-11T14:40:15.683Z,78.82
2023-01-11T14:43:10.129Z,77.85
2023-01-11T14:45:55.571Z,77.94
2023-01-11T14:48:31.145Z,78.88
2023-01-11T14:51:05.672Z,78.44
2023-01-11T14:53:41.164Z,78.01
2023-01-11T14:56:35.732Z,78.55
2023-01-11T14:59:05.296Z,79.04
2023-01-11T15:02:03.719Z,79.43
2023-01-11T15:04:52.659Z,79.28
2023-01-11T15:07:37.361Z,80.15
2023-01-11T15:10:29.967Z,80.45
2023-01-11T15:12:58.126Z,81.31
2023-01-11T15:15:47.365Z,81.51
2023-01-11T15:18:23.914Z,81.21
2023-01-11T15:21:05.354Z,81.38
2023-01-11T15:23:48.492Z,81.32
2023-01-11T15:26:18.848Z,81.85
2023-01-11T15:28:48.300Z,81.62
2023-01-11T15:31:56.537Z,82.17
2023-01-11T15:34:39.336Z,82.47
2023-01-11T15:37:33.880Z,82.32
2023-01-11T15:40:16.902Z,82.79
2023-01-11T15:43:02.237Z,82.64
2023-01-11T15:46:21.521Z,83.06
2023-01-11T15:49:09.879Z,83.78
2023-01-11T15:51:48.534Z,84.14
2023-01-11T15:54:17.947Z,83.98
2023-01-11T15:57:09.161Z,84.73
2023-01-11T16:00:21.196Z,85.11
2023-01-11T16:03:19.835Z,84.47
2023-01-11T16:06:09.434Z,85.25
2023-01-11T16:08:36.747Z,85.22
2023-01-11T16:11:21.498Z,85.03
2023-01-11T16:14:18.965Z,85.01
2023-01-11T16:16:51.740Z,84.82
2023-01-11T16:19:24.388Z,84.96
2023-01-11T16:21:58.951Z,84.64
2023-01-11T16:24:29.519Z,84.94
2023-01-11T16:27:02.329Z,85.18
2023-01-11T16:29:31.807Z,84.76
2023-01-11T16:32:06.930Z,85.43
2023-01-11T16:34:43.269Z,85.64
2023-01-11T16:37:20.535Z,85.33
2023-01-11T16:39:51.671Z,85.33
2023-01-11T16:42:18.294Z,84.85
2023-01-11T16:44:51.591Z,84.70
2023-01-11T16:47:19.856Z,85.41
2023-01-11T16:49:49.422Z,85.24
2023-01-11T16:52:28.400Z,85.30
2023-01-11T16:54:57.003Z,85.50
2023-01-11T16:57:32.610Z,85.29
2023-01-11T17:00:06.040Z,84.76
2023-01-11T17:02:43.212Z,85.29
2023-01-11T17:05:24.448Z,84.81
2023-01-11T17:07:51.022Z,85.02
2023-01-11T17:10:30.309Z,84.78
2023-01-11T17:13:52.465Z,84.96
2023-01-11T17:16:26.875Z,85.55
2023-01-11T17:18:54.573Z,84.94
2023-01-11T17:21:26.736Z,85.47
2023-01-11T17:23:58.801Z,84.77
2023-01-11T17:26:32.151Z,84.93
2023-01-11T17:29:00.370Z,85.92
2023-01-11T17:31:31.929Z,85.26
2023-01-11T17:34:20.493Z,85.22
2023-01-11T17:36:47.899Z,85.88
2023-01-11T17:39:26.209Z,85.94
2023-01-11T17:42:11.642Z,85.96
2023-01-11T17:44:56.994Z,85.41
2023-01-11T17:47:23.903Z,85.19
2023-01-11T17:49:50.913Z,85.47
2023-01-11T17:52:22.061Z,85.11
2023-01-11T17:55:04.135Z,85.23
2023-01-11T17:57:30.825Z,86.10
2023-01-11T18:00:28.200Z,85.75
2023-01-11T18:02:55.197Z,85.61
2023-01-11T18:05:26.751Z,85.33
2023-01-11T18:07:57.283Z,84.61
2023-01-11T18:10:29.788Z,85.69
2023-01-11T18:12:57.900Z,84.99
2023-01-11T18:15:33.492Z,85.22
2023-01-11T18:18:01.295Z,85.52
2023-01-11T18:20:46.248Z,85.15
2023-01-11T18:23:17.377Z,84.80
2023-01-11T18:25:46.049Z,85.06
2023-01-11T18:28:12.848Z,85.15
2023-01-11T18:30:40.943Z,85.16
2023-01-11T18:33:16.211Z,84.94
2023-01-11T18:35:44.503Z,85.13
2023-01-11T18:38:16.857Z,85.44
2023-01-11T18:40:45.256Z,85.23
2023-01-11T18:43:12.736Z,84.70
2023-01-11T18:45:39.571Z,85.00
2023-01-11T18:48:11.698Z,85.39
2023-01-11T18:50:40.433Z,84.82
2023-01-11T18:53:10.182Z,85.07
2023-01-11T18:55:36.731Z,85.41
2023-01-11T18:58:03.286Z,84.86
2023-01-11T19:00:29.913Z,84.83
2023-01-11T19:02:56.548Z,84.72
2023-01-11T19:05:23.392Z,84.17
2023-01-11T19:07:50.218Z,84.16
2023-01-11T19:10:19.824Z,84.81
2023-01-11T19:12:47.115Z,84.23
2023-01-11T19:15:14.798Z,83.70
2023-01-11T19:17:42.183Z,82.41
2023-01-11T19:20:10.970Z,82.82
2023-01-11T19:22:37.885Z,83.12
2023-01-11T19:25:05.340Z,82.36
2023-01-11T19:27:31.876Z,82.47
2023-01-11T19:29:58.504Z,82.00
2023-01-11T19:32:25.726Z,81.89
2023-01-11T19:34:53.568Z,81.89
2023-01-11T19:37:20.744Z,82.32
2023-01-11T19:39:47.376Z,82.03
2023-01-11T19:42:14.170Z,81.47
2023-01-11T19:44:40.728Z,82.07
2023-01-11T19:47:12.331Z,81.80
2023-01-11T19:49:40.625Z,82.32
2023-01-11T19:52:12.389Z,81.98
2023-01-11T19:54:41.930Z,82.01
2023-01-11T19:57:20.553Z,81.74
2023-01-11T19:59:48.734Z,82.40
2023-01-11T20:02:18.072Z,81.88
2023-01-11T20:04:44.822Z,81.66
2023-01-11T20:07:12.940Z,81.57
2023-01-11T20:09:39.581Z,81.69
2023-01-11T20:12:07.577Z,81.51
2023-01-11T20:14:35.000Z,81.12
2023-01-11T20:17:02.207Z,80.51
2023-01-11T20:19:28.826Z,80.83
2023-01-11T20:21:56.018Z,80.28
2023-01-11T20:24:29.415Z,80.81
2023-01-11T20:27:01.515Z,80.73
2023-01-11T20:29:28.142Z,80.86
2023-01-11T20:31:54.693Z,80.27
2023-01-11T20:34:21.444Z,81.13
2023-01-11T20:36:48.986Z,80.70
2023-01-11T20:39:16.826Z,80.96
2023-01-11T20:41:52.743Z,80.40
2023-01-11T20:44:32.842Z,80.87
2023-01-11T20:47:02.234Z,80.44
2023-01-11T20:49:29.826Z,80.28
2023-01-11T20:51:57.146Z,80.28
2023-01-11T20:54:23.774Z,80.48
2023-01-11T20:56:50.752Z,80.44
2023-01-11T20:59:20.727Z,81.00
2023-01-11T21:01:48.731Z,80.77
2023-01-11T21:04:16.549Z,81.00
2023-01-11T21:06:48.298Z,81.26
2023-01-11T21:09:17.303Z,81.35
2023-01-11T21:11:44.392Z,80.67
2023-01-11T21:14:13.691Z,80.56
2023-01-11T21:16:42.015Z,80.06
2023-01-11T21:19:12.336Z,79.93
2023-01-11T21:21:39.290Z,79.75
2023-01-11T21:24:06.344Z,79.79
2023-01-11T21:26:34.635Z,79.48
2023-01-11T21:29:05.015Z,79.28
2023-01-11T21:31:34.536Z,78.97
2023-01-11T21:34:01.596Z,78.87
2023-01-11T21:36:30.525Z,77.93
2023-01-11T21:38:58.657Z,78.34
2023-01-11T21:41:46.872Z,77.57
2023-01-11T21:44:14.480Z,77.55
2023-01-11T21:46:45.098Z,77.81
2023-01-11T21:49:13.084Z,77.31
2023-01-11T21:51:40.862Z,76.86
2023-01-11T21:54:12.122Z,76.86
2023-01-11T21:56:38.800Z,76.82
2023-01-11T21:59:08.197Z,76.43
2023-01-11T22:01:34.775Z,76.41
2023-01-11T22:04:10.155Z,76.30
2023-01-11T22:06:43.179Z,76.59
2023-01-11T22:09:11.423Z,76.04
2023-01-11T22:11:38.606Z,76.25
2023-01-11T22:14:06.628Z,75.50
2023-01-11T22:16:33.840Z,76.02
2023-01-11T22:19:01.300Z,76.46
2023-01-11T22:21:28.431Z,75.82
2023-01-11T22:23:59.054Z,75.40
2023-01-11T22:26:27.147Z,75.56
2023-01-11T22:29:16.285Z,75.81
2023-01-11T22:31:52.624Z,75.87
2023-01-11T22:34:19.613Z,75.99
2023-01-11T22:36:46.722Z,75.94
2023-01-11T22:39:14.989Z,75.31
2023-01-11T22:41:42.159Z,75.97
2023-01-11T22:44:12.480Z,76.08
2023-01-11T22:46:39.001Z,77.17
2023-01-11T22:49:06.487Z,76.75
2023-01-11T22:51:33.513Z,76.79
2023-01-11T22:54:00.132Z,76.60
2023-01-11T22:56:29.162Z,76.85
2023-01-11T22:58:59.671Z,76.95
2023-01-11T23:01:27.256Z,77.30
2023-01-11T23:03:54.859Z,77.38
2023-01-11T23:06:27.116Z,77.82
2023-01-11T23:08:54.462Z,78.98
2023-01-11T23:11:42.608Z,78.73
2023-01-11T23:14:10.343Z,77.96
2023-01-11T23:16:38.708Z,78.72
2023-01-11T23:19:07.339Z,78.51
2023-01-11T23:21:34.251Z,78.48
2023-01-11T23:24:01.949Z,78.85
2023-01-11T23:26:29.505Z,78.77
2023-01-11T23:28:56.040Z,77.44
2023-01-11T23:31:24.277Z,78.26
2023-01-11T23:33:54.159Z,78.31
2023-01-11T23:36:22.002Z,77.16
2023-01-11T23:38:49.521Z,76.92
2023-01-11T23:41:37.395Z,77.11
2023-01-11T23:44:13.053Z,76.96
2023-01-11T23:46:59.733Z,77.31
2023-01-11T23:49:27.354Z,77.21
2023-01-11T23:51:55.069Z,77.32
2023-01-11T23:54:22.333Z,77.74
2023-01-11T23:56:49.231Z,77.22
2023-01-11T23:59:15.802Z,77.80
